METAR Data
IDs: Format: Raw Decoded Include TAF

Data at: 1152 UTC 23 Sep 2018

KFOZ 231133Z AUTO 04005KT 3SM BR OVC004 05/04 A3011 RMK AO2
KFOZ 231113Z AUTO 05007KT 3SM BR OVC004 05/04 A3010 RMK AO2
KFOZ 231053Z AUTO 05007KT 4SM BR OVC004 05/04 A3010 RMK AO2
KFOZ 231033Z AUTO 05006KT 5SM BR OVC004 05/04 A3010 RMK AO2
KFOZ 231013Z AUTO 05006KT 7SM OVC006 06/04 A3011 RMK AO2
KFOZ 230953Z AUTO 04004KT 10SM OVC006 06/04 A3011 RMK AO2
KFOZ 230933Z AUTO 06006KT 10SM OVC006 06/04 A3010 RMK AO2
KFOZ 230913Z AUTO 06007KT 013V093 10SM OVC008 06/04 A3011 RMK AO2
KFOZ 230853Z AUTO 04003KT 10SM OVC008 06/04 A3010 RMK AO2
KFOZ 230833Z AUTO 05005KT 10SM OVC008 06/04 A3010 RMK AO2
KFOZ 230813Z AUTO 07005KT 10SM OVC008 06/04 A3011 RMK AO2
KFOZ 230753Z AUTO 06007KT 10SM OVC008 06/04 A3010 RMK AO2
KFOZ 230733Z AUTO 06008KT 10SM OVC008 06/04 A3010 RMK AO2
KFOZ 230713Z AUTO 05008KT 033V093 10SM OVC010 06/04 A3011 RMK AO2
KFOZ 230653Z AUTO 05006G16KT 10SM OVC010 06/04 A3011 RMK AO2
KFOZ 230633Z AUTO 05009G17KT 10SM OVC010 06/04 A3011 RMK AO2
KFOZ 230613Z AUTO 05007KT 10SM OVC010 06/04 A3011 RMK AO2
KFOZ 230553Z AUTO 05006KT 10SM OVC010 06/04 A3011 RMK AO2
KFOZ 230533Z AUTO 06006KT 10SM OVC010 06/04 A3011 RMK AO2
KFOZ 230513Z AUTO 05007KT 10SM OVC010 06/04 A3011 RMK AO2
KFOZ 230453Z AUTO 04006KT 10SM OVC010 06/04 A3012 RMK AO2
KFOZ 230433Z AUTO 06006KT 10SM OVC010 06/04 A3011 RMK AO2
KFOZ 230413Z AUTO 03006KT 10SM OVC010 07/04 A3012 RMK AO2
KFOZ 230353Z AUTO 03006KT 10SM OVC010 07/04 A3012 RMK AO2
KFOZ 230333Z AUTO 05008KT 10SM OVC010 07/04 A3011 RMK AO2
KFOZ 230313Z AUTO 04007KT 10SM OVC010 07/05 A3010 RMK AO2
KFOZ 230253Z AUTO 03008KT 003V063 10SM OVC010 07/05 A3010 RMK AO2
KFOZ 230233Z AUTO 05008KT 10SM OVC010 07/05 A3010 RMK AO2
KFOZ 230213Z AUTO 02006KT 10SM OVC010 08/06 A3010 RMK AO2
KFOZ 230153Z AUTO 02008KT 10SM BKN010 OVC041 08/06 A3009 RMK AO2
KFOZ 230133Z AUTO 04007KT 10SM OVC041 09/07 A3008 RMK AO2
KFOZ 230113Z AUTO 03007KT 10SM OVC041 09/07 A3008 RMK AO2
KFOZ 230053Z AUTO 02007KT 003V063 10SM -RA OVC041 11/07 A3007 RMK AO2
KFOZ 230033Z AUTO 02007KT 10SM OVC041 12/09 A3006 RMK AO2
KFOZ 230013Z AUTO 00000KT 10SM OVC041 12/09 A3006 RMK AO2
KFOZ 222353Z AUTO 00000KT 10SM OVC041 13/09 A3005 RMK AO2
KFOZ 222333Z AUTO 00000KT 10SM OVC041 13/09 A3005 RMK AO2
KFOZ 222313Z AUTO 00000KT 10SM OVC043 13/09 A3005 RMK AO2
KFOZ 222253Z AUTO 00000KT 10SM OVC043 14/08 A3004 RMK AO2
KFOZ 222233Z AUTO 00000KT 10SM SCT036 BKN043 14/08 A3003 RMK AO2
KFOZ 222213Z AUTO 00000KT 10SM BKN039 15/08 A3004 RMK AO2
KFOZ 222153Z AUTO 16003KT 10SM SCT039 15/08 A3005 RMK AO2
KFOZ 222133Z AUTO 17004KT 10SM SCT037 15/08 A3003 RMK AO2
KFOZ 222114Z AUTO 16007KT 10SM SCT037 SCT065 16/08 A3004 RMK AO2
KFOZ 222053Z AUTO 22003KT 10SM SCT037 BKN065 16/08 A3005 RMK AO2
KFOZ 222033Z AUTO 20005KT 10SM BKN037 BKN065 15/08 A3005 RMK AO2
KFOZ 222014Z AUTO 19005KT 10SM SCT037 BKN065 16/07 A3005 RMK AO2
KFOZ 221953Z AUTO 22005KT 10SM SCT075 16/08 A3006 RMK AO2
KFOZ 221933Z AUTO 23004KT 10SM SCT075 15/07 A3007 RMK AO2
KFOZ 221914Z AUTO 00000KT 10SM SCT075 15/07 A3008 RMK AO2 TSNO
KFOZ 221853Z AUTO 24006KT 10SM BKN075 14/07 A3010 RMK AO2
KFOZ 221833Z AUTO 22005KT 10SM OVC075 14/07 A3010 RMK AO2
KFOZ 221813Z AUTO 21009KT 10SM BKN075 14/07 A3010 RMK AO2
KFOZ 221754Z AUTO 22011G15KT 10SM SCT075 14/07 A3010 RMK AO2
KFOZ 221733Z AUTO 18005KT 10SM CLR 14/08 A3011 RMK AO2
KFOZ 221713Z AUTO 21009G15KT 10SM CLR 12/07 A3012 RMK AO2
KFOZ 221654Z AUTO 19010G14KT 10SM SCT100 12/07 A3013 RMK AO2
KFOZ 221633Z AUTO 19006KT 10SM CLR 12/07 A3014 RMK AO2
KFOZ 221613Z AUTO 20008KT 10SM CLR 12/07 A3015 RMK AO2
KFOZ 221554Z AUTO 20008KT 10SM CLR 11/07 A3015 RMK AO2
KFOZ 221533Z AUTO 19004KT 10SM SCT100 10/07 A3016 RMK AO2
KFOZ 221513Z AUTO 20006KT 10SM SCT100 09/07 A3016 RMK AO2
KFOZ 221453Z AUTO 20006KT 10SM SCT100 09/06 A3017 RMK AO2
KFOZ 221433Z AUTO 19004KT 10SM SCT100 09/07 A3018 RMK AO2
KFOZ 221413Z AUTO 19003KT 10SM BKN100 08/07 A3018 RMK AO2
KFOZ 221353Z AUTO 19005KT 10SM SCT100 08/07 A3018 RMK AO2
KFOZ 221333Z AUTO 19004KT 10SM SCT100 08/07 A3018 RMK AO2
KFOZ 221313Z AUTO 19005KT 10SM SCT100 07/07 A3018 RMK AO2
KFOZ 221253Z AUTO 20005KT 10SM CLR 07/06 A3018 RMK AO2
KFOZ 221233Z AUTO 20003KT 10SM SCT110 06/06 A3018 RMK AO2
KFOZ 221213Z AUTO 00000KT 10SM SCT110 06/05 A3018 RMK AO2
KFOZ 221153Z AUTO 00000KT 10SM CLR 04/04 A3018 RMK AO2
KFOZ 221133Z AUTO 00000KT 10SM CLR 04/03 A3019 RMK AO2
KFOZ 221113Z AUTO 00000KT 10SM CLR 04/03 A3019 RMK AO2
KFOZ 221053Z AUTO 00000KT 10SM CLR 03/03 A3019 RMK AO2
KFOZ 221037Z AUTO 00000KT 10SM 03/02 A3020 RMK AO2
KFOZ 221013Z AUTO 00000KT 10SM CLR 02/02 A3020 RMK AO2
KFOZ 220953Z AUTO 00000KT 7SM CLR 03/02 A3020 RMK AO2
KFOZ 220933Z AUTO 00000KT 10SM CLR 02/02 A3021 RMK AO2
KFOZ 220913Z AUTO 00000KT 10SM CLR 02/01 A3021 RMK AO2
KFOZ 220853Z AUTO 00000KT 5SM BR CLR 02/01 A3021 RMK AO2
KFOZ 220833Z AUTO 00000KT 3SM BR CLR 01/01 A3021 RMK AO2
KFOZ 220813Z AUTO 00000KT 5SM BR CLR 01/01 A3022 RMK AO2
KFOZ 220753Z AUTO 00000KT 5SM BR CLR 02/01 A3022 RMK AO2
KFOZ 220733Z AUTO 00000KT 7SM CLR 02/01 A3023 RMK AO2
KFOZ 220713Z AUTO 00000KT 7SM CLR 01/01 A3023 RMK AO2
KFOZ 220653Z AUTO 00000KT 4SM BR CLR 01/01 A3024 RMK AO2
KFOZ 220633Z AUTO 00000KT 2 1/2SM BR CLR 01/01 A3024 RMK AO2 VIS 1V5
KFOZ 220613Z AUTO 00000KT 1 1/2SM BR VV007 02/01 A3025 RMK AO2
KFOZ 220553Z AUTO 00000KT 1 3/4SM BR VV007 02/01 A3025 RMK AO2 VIS 1 1/4V3
KFOZ 220533Z AUTO 00000KT 10SM CLR 02/01 A3025 RMK AO2
KFOZ 220513Z AUTO 00000KT 1 3/4SM BR VV007 02/01 A3026 RMK AO2 VIS 1V5
KFOZ 220453Z AUTO 00000KT 4SM BR CLR 02/01 A3026 RMK AO2
KFOZ 220433Z AUTO 00000KT 10SM CLR 03/02 A3026 RMK AO2
KFOZ 220413Z AUTO 00000KT 10SM CLR 03/02 A3026 RMK AO2
KFOZ 220353Z AUTO 00000KT 10SM CLR 03/02 A3026 RMK AO2
KFOZ 220333Z AUTO 00000KT 10SM CLR 03/03 A3026 RMK AO2
KFOZ 220313Z AUTO 00000KT 10SM CLR 03/03 A3025 RMK AO2
KFOZ 220253Z AUTO 00000KT 10SM CLR 04/03 A3025 RMK AO2
KFOZ 220233Z AUTO 00000KT 10SM CLR 04/03 A3025 RMK AO2
KFOZ 220214Z AUTO 00000KT 10SM CLR 04/03 A3024 RMK AO2
KFOZ 220153Z AUTO 00000KT 10SM CLR 05/03 A3023 RMK AO2 TSNO
KFOZ 220133Z AUTO 00000KT 10SM CLR 06/04 A3023 RMK AO2
KFOZ 220113Z AUTO 00000KT 10SM CLR 06/04 A3022 RMK AO2
KFOZ 220053Z AUTO 00000KT 10SM CLR 07/04 A3021 RMK AO2
KFOZ 220033Z AUTO 00000KT 10SM CLR 09/03 A3020 RMK AO2
KFOZ 220013Z AUTO 00000KT 10SM CLR 11/03 A3019 RMK AO2
KFOZ 212353Z AUTO 28003KT 10SM SCT060 12/03 A3019 RMK AO2